Saitama, Japan
Current Conditions -  °F | °C
As of 4:58 PM on Sunday 26 Oct 2014 (Local Time) from RJTY Reporting Station
Scattered Clouds Scattered Clouds  
Wind Chill: 69°   Ceiling: Unl
Heat Index: 69°   Visibility: 10mi
Dew Point: 62°   Wind: 10mph
Humidity: 77%   Direction: 150°SSE
Pressure: 30.09"   Gusts: NA
Location:  35.87°N, 139.65°E
Report Text: RJTY 260758Z AUTO 15009KT 10SM SCT065 SCT130 21/17 A3009 RMK AO2 SLP191 T02060165
Loading
Personal Weather Stations






























Interactive Weather Map
Tropical Storm Tracking
New forecast layout! Learn more

10-Day Weather Forecast

Advertisements
Track Severe Weather on mobile